createdAt,value
2019-05-16T00:01:04.461Z,8.23
2019-05-16T00:03:30.666Z,8.15
2019-05-16T00:05:58.449Z,8.50
2019-05-16T00:08:24.859Z,7.50
2019-05-16T00:10:51.373Z,7.40
2019-05-16T00:13:18.670Z,7.70
2019-05-16T00:15:44.995Z,8.08
2019-05-16T00:18:11.339Z,7.87
2019-05-16T00:20:38.682Z,7.92
2019-05-16T00:23:04.998Z,8.33
2019-05-16T00:25:31.776Z,7.97
2019-05-16T00:27:58.670Z,7.83
2019-05-16T00:30:25.033Z,8.53
2019-05-16T00:32:51.291Z,9.30
2019-05-16T00:35:18.385Z,8.33
2019-05-16T00:37:44.705Z,8.80
2019-05-16T00:40:11.282Z,9.25
2019-05-16T00:42:39.143Z,8.28
2019-05-16T00:45:05.916Z,8.60
2019-05-16T00:47:32.107Z,9.43
2019-05-16T00:49:58.384Z,9.13
2019-05-16T00:52:24.664Z,8.65
2019-05-16T00:54:50.968Z,9.90
2019-05-16T00:57:18.800Z,9.23
2019-05-16T00:59:45.668Z,9.43
2019-05-16T01:02:11.908Z,8.88
2019-05-16T01:04:38.247Z,8.80
2019-05-16T01:07:04.415Z,8.08
2019-05-16T01:09:30.717Z,8.30
2019-05-16T01:11:57.924Z,8.88
2019-05-16T01:14:24.432Z,7.28
2019-05-16T01:16:51.889Z,8.50
2019-05-16T01:19:18.691Z,7.92
2019-05-16T01:21:45.218Z,8.70
2019-05-16T01:24:11.303Z,9.88
2019-05-16T01:26:39.164Z,8.20
2019-05-16T01:29:05.583Z,8.83
2019-05-16T01:31:31.771Z,8.83
2019-05-16T01:33:58.354Z,8.18
2019-05-16T01:36:36.507Z,7.85
2019-05-16T01:38:52.872Z,7.25
2019-05-16T01:41:19.079Z,8.33
2019-05-16T01:43:45.247Z,8.05
2019-05-16T01:46:11.413Z,8.10
2019-05-16T01:48:38.102Z,8.40
2019-05-16T01:51:04.496Z,9.23
2019-05-16T01:53:30.621Z,8.38
2019-05-16T01:55:58.040Z,8.90
2019-05-16T01:58:24.271Z,9.70
2019-05-16T02:01:03.046Z,8.10
2019-05-16T02:03:19.091Z,8.65
2019-05-16T02:05:45.515Z,9.05
2019-05-16T02:08:12.340Z,8.18
2019-05-16T02:10:38.481Z,7.85
2019-05-16T02:13:04.816Z,8.25
2019-05-16T02:15:31.077Z,8.90
2019-05-16T02:17:58.665Z,8.35
2019-05-16T02:20:25.193Z,8.43
2019-05-16T02:22:51.553Z,7.80
2019-05-16T02:25:18.686Z,7.95
2019-05-16T02:27:45.018Z,6.67
2019-05-16T02:30:13.644Z,6.67
2019-05-16T02:32:41.825Z,6.92
2019-05-16T02:35:11.718Z,7.47
2019-05-16T02:37:36.993Z,7.87
2019-05-16T02:40:05.713Z,6.55
2019-05-16T02:42:32.115Z,7.83
2019-05-16T02:45:01.875Z,7.00
2019-05-16T02:47:26.329Z,7.25
2019-05-16T02:49:52.434Z,8.98
2019-05-16T02:52:21.662Z,8.30
2019-05-16T02:54:46.759Z,8.98
2019-05-16T02:57:12.954Z,9.58
2019-05-16T02:59:41.623Z,9.55
2019-05-16T03:02:07.599Z,10.25
2019-05-16T03:04:33.901Z,10.60
2019-05-16T03:07:00.798Z,10.35
2019-05-16T03:09:30.493Z,10.23
2019-05-16T03:11:56.962Z,11.63
2019-05-16T03:14:23.557Z,11.45
2019-05-16T03:16:52.580Z,10.82
2019-05-16T03:19:21.787Z,11.12
2019-05-16T03:21:50.842Z,10.63
2019-05-16T03:24:20.601Z,11.93
2019-05-16T03:26:46.520Z,10.85
2019-05-16T03:29:12.690Z,11.60
2019-05-16T03:31:44.812Z,11.05
2019-05-16T03:34:08.058Z,11.60
2019-05-16T03:36:35.173Z,12.05
2019-05-16T03:39:04.542Z,10.65
2019-05-16T03:41:30.986Z,11.08
2019-05-16T03:43:57.304Z,11.00
2019-05-16T03:46:25.200Z,10.85
2019-05-16T03:48:52.349Z,12.07
2019-05-16T03:51:21.321Z,10.70
2019-05-16T03:53:46.765Z,10.98
2019-05-16T03:56:12.937Z,11.97
2019-05-16T03:58:41.593Z,10.72
2019-05-16T04:01:10.783Z,9.98
2019-05-16T04:03:35.395Z,9.28
2019-05-16T04:06:01.730Z,9.70
2019-05-16T04:08:30.707Z,9.90
2019-05-16T04:10:56.013Z,8.70
2019-05-16T04:13:22.430Z,8.53
2019-05-16T04:15:51.749Z,7.22
2019-05-16T04:18:17.069Z,8.60
2019-05-16T04:20:43.316Z,8.53
2019-05-16T04:23:11.248Z,7.83
2019-05-16T04:25:40.810Z,8.53
2019-05-16T04:28:07.747Z,7.90
2019-05-16T04:30:34.152Z,7.40
2019-05-16T04:33:01.891Z,8.05
2019-05-16T04:35:31.534Z,6.85
2019-05-16T04:37:56.477Z,6.47
2019-05-16T04:40:22.777Z,7.28
2019-05-16T04:42:51.251Z,7.12
2019-05-16T04:45:21.014Z,7.40
2019-05-16T04:47:46.183Z,7.30
2019-05-16T04:50:12.883Z,7.17
2019-05-16T04:52:41.791Z,6.25
2019-05-16T04:55:11.887Z,6.05
2019-05-16T04:57:42.154Z,6.62
2019-05-16T05:00:10.854Z,6.45
2019-05-16T05:02:35.915Z,5.40
2019-05-16T05:05:02.369Z,5.65
2019-05-16T05:07:31.237Z,6.37
2019-05-16T05:09:56.995Z,5.85
2019-05-16T05:12:23.354Z,6.92
2019-05-16T05:14:51.037Z,6.83
2019-05-16T05:17:17.453Z,7.53
2019-05-16T05:19:44.657Z,7.05
2019-05-16T05:22:10.934Z,7.12
2019-05-16T05:24:37.027Z,6.33
2019-05-16T05:27:03.315Z,5.90
2019-05-16T05:29:30.720Z,5.65
2019-05-16T05:31:57.129Z,6.00
2019-05-16T05:34:23.336Z,6.30
2019-05-16T05:36:51.179Z,5.28
2019-05-16T05:39:19.877Z,5.97
2019-05-16T05:41:45.628Z,5.53
2019-05-16T05:44:11.917Z,6.10
2019-05-16T05:46:40.068Z,5.70
2019-05-16T05:49:06.444Z,5.67
2019-05-16T05:51:32.697Z,4.87
2019-05-16T05:54:00.185Z,4.92
2019-05-16T05:56:26.497Z,5.97
2019-05-16T05:58:52.812Z,4.42
2019-05-16T06:01:20.605Z,5.40
2019-05-16T06:03:47.016Z,6.30
2019-05-16T06:06:13.275Z,6.60
2019-05-16T06:08:40.969Z,8.03
2019-05-16T06:11:07.375Z,8.38
2019-05-16T06:13:33.585Z,8.68
2019-05-16T06:16:00.249Z,8.20
2019-05-16T06:18:26.610Z,9.38
2019-05-16T06:20:52.709Z,8.85
2019-05-16T06:23:20.805Z,8.20
2019-05-16T06:25:46.992Z,7.95
2019-05-16T06:28:13.212Z,8.30
2019-05-16T06:30:40.746Z,7.70
2019-05-16T06:33:07.261Z,7.97
2019-05-16T06:35:33.351Z,7.92
2019-05-16T06:38:00.631Z,7.33
2019-05-16T06:40:26.947Z,6.60
2019-05-16T06:42:53.150Z,6.12
2019-05-16T06:45:20.701Z,6.55
2019-05-16T06:47:47.383Z,6.75
2019-05-16T06:50:13.608Z,4.83
2019-05-16T06:52:40.834Z,4.58
2019-05-16T06:55:10.077Z,4.87
2019-05-16T06:57:36.449Z,4.22
2019-05-16T07:00:05.542Z,3.58
2019-05-16T07:02:34.589Z,4.35
2019-05-16T07:05:01.152Z,4.33
2019-05-16T07:07:27.419Z,3.35
2019-05-16T07:10:00.041Z,3.25
2019-05-16T07:12:21.741Z,2.40
2019-05-16T07:14:50.315Z,2.80
2019-05-16T07:17:16.090Z,2.22
2019-05-16T07:19:42.416Z,2.20
2019-05-16T07:22:11.096Z,2.50
2019-05-16T07:24:36.907Z,2.30
2019-05-16T07:27:03.152Z,2.20
2019-05-16T07:29:30.877Z,1.98
2019-05-16T07:31:57.322Z,2.22
2019-05-16T07:34:23.416Z,1.50
2019-05-16T07:36:50.308Z,2.02
2019-05-16T07:39:16.734Z,1.65
2019-05-16T07:41:42.950Z,2.30
2019-05-16T07:44:10.845Z,2.50
2019-05-16T07:46:37.279Z,2.67
2019-05-16T07:49:03.459Z,2.30
2019-05-16T07:51:31.040Z,3.05
2019-05-16T07:53:59.650Z,3.02
2019-05-16T07:56:25.478Z,3.10
2019-05-16T07:58:51.848Z,3.00
2019-05-16T08:01:20.051Z,2.98
2019-05-16T08:03:46.379Z,2.87
2019-05-16T08:06:12.611Z,3.20
2019-05-16T08:08:40.373Z,3.47
2019-05-16T08:11:07.053Z,3.15
2019-05-16T08:13:33.345Z,3.15
2019-05-16T08:16:01.188Z,2.98
2019-05-16T08:18:30.042Z,3.30
2019-05-16T08:20:55.833Z,3.25
2019-05-16T08:25:51.172Z,2.87
2019-05-16T08:28:20.495Z,3.05
2019-05-16T08:30:45.406Z,3.67
2019-05-16T08:35:41.295Z,3.55
2019-05-16T08:38:07.762Z,3.77
2019-05-16T08:43:02.073Z,2.75
2019-05-16T08:45:31.339Z,2.00
2019-05-16T08:47:56.299Z,2.25
2019-05-16T08:50:06.466Z,3.35
2019-05-16T08:50:08.651Z,3.95
2019-05-16T08:50:22.656Z,2.50
2019-05-16T08:52:52.703Z,2.10
2019-05-16T08:55:17.155Z,2.27
2019-05-16T08:57:43.374Z,3.17
2019-05-16T09:00:14.713Z,4.80
2019-05-16T09:02:42.044Z,3.85
2019-05-16T09:05:13.144Z,3.50
2019-05-16T09:07:35.442Z,4.15
2019-05-16T09:10:03.657Z,4.28
2019-05-16T09:10:37.994Z,3.25
2019-05-16T09:12:29.746Z,2.77
2019-05-16T09:14:59.385Z,3.27
2019-05-16T09:17:27.214Z,2.90
2019-05-16T09:19:52.517Z,2.50
2019-05-16T09:22:18.682Z,2.40
2019-05-16T09:24:47.835Z,3.58
2019-05-16T09:27:13.513Z,3.70
2019-05-16T09:29:39.859Z,3.22
2019-05-16T09:32:12.503Z,2.70
2019-05-16T09:34:37.325Z,3.20
2019-05-16T09:37:02.384Z,2.87
2019-05-16T09:39:28.794Z,3.05
2019-05-16T09:41:58.374Z,3.10
2019-05-16T09:44:23.127Z,2.65
2019-05-16T09:46:49.403Z,2.80
2019-05-16T09:49:23.919Z,2.58
2019-05-16T09:51:43.642Z,2.37
2019-05-16T09:54:09.776Z,1.95
2019-05-16T09:56:37.047Z,2.12
2019-05-16T09:59:03.600Z,2.42
2019-05-16T10:01:29.842Z,1.85
2019-05-16T10:03:56.181Z,2.67
2019-05-16T10:06:22.367Z,2.90
2019-05-16T10:08:48.577Z,2.87
2019-05-16T10:11:17.870Z,2.90
2019-05-16T10:13:43.049Z,2.60
2019-05-16T10:16:09.498Z,3.65
2019-05-16T10:18:37.017Z,2.90
2019-05-16T10:21:04.067Z,3.20
2019-05-16T10:23:30.387Z,2.70
2019-05-16T10:25:56.855Z,3.12
2019-05-16T10:28:23.112Z,4.30
2019-05-16T10:30:50.144Z,4.10
2019-05-16T10:33:18.858Z,3.90
2019-05-16T10:35:47.741Z,3.72
2019-05-16T10:38:13.010Z,3.90
2019-05-16T10:40:39.384Z,3.52
2019-05-16T10:43:07.234Z,4.03
2019-05-16T10:45:33.977Z,4.08
2019-05-16T10:48:00.073Z,4.00
2019-05-16T10:50:27.615Z,4.65
2019-05-16T10:53:20.490Z,4.30
2019-05-16T10:55:22.339Z,4.58
2019-05-16T10:57:48.990Z,4.03
2019-05-16T11:00:36.827Z,3.77
2019-05-16T11:02:44.243Z,3.92
2019-05-16T11:05:24.905Z,4.80
2019-05-16T11:07:38.907Z,4.97
2019-05-16T11:10:07.012Z,5.28
2019-05-16T11:12:48.779Z,5.40
2019-05-16T11:15:01.851Z,5.22
2019-05-16T11:17:28.163Z,5.25
2019-05-16T11:19:54.269Z,5.80
2019-05-16T11:22:20.477Z,5.60
2019-05-16T11:24:47.143Z,5.72
2019-05-16T11:27:13.584Z,6.35
2019-05-16T11:29:39.738Z,5.67
2019-05-16T11:32:06.919Z,5.83
2019-05-16T11:34:33.346Z,5.90
2019-05-16T11:36:59.568Z,5.65
2019-05-16T11:39:25.675Z,5.60
2019-05-16T11:41:51.905Z,6.62
2019-05-16T11:44:18.069Z,5.95
2019-05-16T11:46:44.311Z,5.28
2019-05-16T11:49:10.593Z,6.08
2019-05-16T11:51:38.391Z,6.53
2019-05-16T11:54:06.943Z,5.90
2019-05-16T11:56:32.981Z,6.22
2019-05-16T11:58:59.216Z,6.65
2019-05-16T12:01:27.460Z,6.60
2019-05-16T12:03:53.417Z,5.80
2019-05-16T12:06:19.768Z,5.42
2019-05-16T12:08:46.747Z,5.65
2019-05-16T12:11:13.155Z,5.78
2019-05-16T12:13:39.282Z,5.58
2019-05-16T12:16:07.533Z,6.10
2019-05-16T12:18:33.511Z,5.53
2019-05-16T12:20:59.730Z,5.70
2019-05-16T12:23:27.663Z,6.08
2019-05-16T12:25:56.491Z,5.72
2019-05-16T12:28:22.086Z,6.00
2019-05-16T12:30:48.403Z,6.20
2019-05-16T12:33:14.640Z,4.70
2019-05-16T12:35:40.999Z,4.67
2019-05-16T12:38:08.127Z,5.17
2019-05-16T12:40:37.599Z,5.60
2019-05-16T12:43:07.531Z,5.87
2019-05-16T12:45:35.012Z,6.37
2019-05-16T12:48:01.723Z,6.05
2019-05-16T12:50:28.897Z,7.08
2019-05-16T12:52:56.943Z,6.65
2019-05-16T12:55:23.244Z,7.62
2019-05-16T12:57:50.077Z,7.60
2019-05-16T13:00:18.952Z,7.83
2019-05-16T13:02:47.277Z,7.40
2019-05-16T13:05:13.652Z,7.00
2019-05-16T13:07:39.990Z,7.03
2019-05-16T13:10:08.329Z,6.78
2019-05-16T13:12:37.419Z,6.58
2019-05-16T13:15:03.795Z,7.03
2019-05-16T13:17:29.907Z,7.40
2019-05-16T13:19:57.555Z,7.00
2019-05-16T13:22:23.860Z,7.65
2019-05-16T13:24:50.129Z,7.42
2019-05-16T13:27:22.600Z,7.25
2019-05-16T13:29:47.715Z,5.95
2019-05-16T13:32:13.306Z,6.70
2019-05-16T13:34:39.505Z,6.15
2019-05-16T13:37:07.525Z,8.05
2019-05-16T13:39:33.996Z,7.87
2019-05-16T13:42:00.303Z,7.20
2019-05-16T13:44:27.492Z,7.60
2019-05-16T13:46:53.991Z,8.25
2019-05-16T13:49:20.201Z,7.67
2019-05-16T13:51:46.535Z,7.87
2019-05-16T13:54:12.689Z,7.60
2019-05-16T13:56:38.973Z,7.90
2019-05-16T13:59:07.633Z,7.72
2019-05-16T14:01:33.302Z,9.35
2019-05-16T14:03:59.447Z,8.23
2019-05-16T14:06:25.705Z,8.73
2019-05-16T14:08:52.033Z,8.03
2019-05-16T14:11:18.203Z,7.90
2019-05-16T14:13:46.779Z,7.80
2019-05-16T14:16:12.748Z,8.23
2019-05-16T14:18:38.939Z,9.18
2019-05-16T14:21:06.933Z,8.25
2019-05-16T14:23:33.123Z,8.70
2019-05-16T14:25:59.367Z,13.10
2019-05-16T14:28:25.565Z,10.72
2019-05-16T14:30:51.795Z,9.25
2019-05-16T14:33:18.082Z,9.70
2019-05-16T14:35:47.309Z,8.73
2019-05-16T14:38:13.739Z,8.95
2019-05-16T14:40:39.841Z,9.15
2019-05-16T14:43:08.250Z,9.40
2019-05-16T14:45:34.268Z,8.85
2019-05-16T14:48:00.483Z,8.60
2019-05-16T14:50:27.684Z,9.55
2019-05-16T14:52:56.533Z,8.63
2019-05-16T14:55:22.310Z,10.85
2019-05-16T14:57:48.566Z,10.90
2019-05-16T15:00:18.111Z,10.58
2019-05-16T15:02:43.541Z,9.85
2019-05-16T15:05:11.143Z,9.68
2019-05-16T15:07:37.759Z,10.38
2019-05-16T15:10:07.412Z,10.15
2019-05-16T15:12:33.907Z,9.90
2019-05-16T15:15:16.096Z,10.28
2019-05-16T15:17:28.249Z,10.13
2019-05-16T15:19:57.004Z,10.80
2019-05-16T15:22:22.819Z,11.33
2019-05-16T15:24:48.978Z,12.03
2019-05-16T15:27:17.049Z,10.68
2019-05-16T15:29:43.562Z,11.57
2019-05-16T15:32:09.669Z,11.53
2019-05-16T15:34:38.074Z,12.43
2019-05-16T15:37:04.155Z,10.88
2019-05-16T15:39:31.021Z,11.38
2019-05-16T15:41:57.352Z,10.35
2019-05-16T15:44:23.586Z,11.80
2019-05-16T15:46:49.992Z,11.03
2019-05-16T15:49:17.170Z,11.50
2019-05-16T15:51:43.732Z,11.08
2019-05-16T15:54:19.442Z,10.78
2019-05-16T15:56:48.270Z,10.35
2019-05-16T15:59:14.444Z,11.30
2019-05-16T16:01:40.746Z,13.98
2019-05-16T16:04:07.242Z,12.47
2019-05-16T16:06:33.580Z,12.10
2019-05-16T16:08:59.782Z,11.75
2019-05-16T16:11:27.254Z,10.63
2019-05-16T16:13:53.638Z,13.70
2019-05-16T16:16:19.942Z,11.22
2019-05-16T16:18:47.126Z,10.90
2019-05-16T16:21:13.405Z,10.90
2019-05-16T16:23:39.595Z,11.65
2019-05-16T16:26:07.509Z,12.05
2019-05-16T16:28:33.683Z,14.03
2019-05-16T16:31:00.006Z,14.15
2019-05-16T16:33:29.962Z,15.78
2019-05-16T16:35:56.960Z,13.85
2019-05-16T16:38:22.549Z,13.50
2019-05-16T16:40:48.727Z,12.95
2019-05-16T16:43:14.875Z,12.78
2019-05-16T16:45:41.134Z,12.23
2019-05-16T16:48:07.835Z,13.20
2019-05-16T16:50:34.326Z,14.18
2019-05-16T16:53:00.458Z,13.70
2019-05-16T16:55:27.537Z,13.18
2019-05-16T16:57:55.870Z,14.05
2019-05-16T17:00:22.510Z,13.98
2019-05-16T17:03:01.655Z,13.78
2019-05-16T17:05:17.090Z,15.18
2019-05-16T17:07:44.602Z,13.62
2019-05-16T17:10:11.319Z,29.23
2019-05-16T17:12:41.241Z,15.13
2019-05-16T17:15:08.503Z,13.83
2019-05-16T17:17:37.360Z,14.85
2019-05-16T17:20:07.656Z,14.50
2019-05-16T17:22:34.140Z,10.93
2019-05-16T17:25:00.594Z,13.95
2019-05-16T17:27:27.040Z,14.18
2019-05-16T17:29:53.307Z,14.13
2019-05-16T17:32:19.641Z,14.47
2019-05-16T17:34:45.992Z,14.05
2019-05-16T17:37:12.718Z,13.25
2019-05-16T17:40:03.980Z,13.43
2019-05-16T17:42:34.503Z,14.00
2019-05-16T17:45:00.192Z,13.53
2019-05-16T17:47:26.463Z,14.60
2019-05-16T17:49:52.566Z,15.13
2019-05-16T17:52:18.879Z,16.42
2019-05-16T17:54:46.204Z,16.23
2019-05-16T17:57:12.293Z,15.83
2019-05-16T17:59:38.644Z,16.35
2019-05-16T18:02:06.468Z,17.80
2019-05-16T18:04:32.988Z,18.20
2019-05-16T18:06:59.170Z,17.55
2019-05-16T18:09:27.567Z,19.75
2019-05-16T18:11:53.559Z,17.25
2019-05-16T18:14:19.840Z,16.70
2019-05-16T18:16:53.690Z,16.40
2019-05-16T18:19:14.088Z,15.58
2019-05-16T18:21:40.251Z,15.05
2019-05-16T18:24:06.562Z,15.78
2019-05-16T18:26:32.690Z,14.65
2019-05-16T18:28:58.910Z,15.93
2019-05-16T18:31:26.620Z,15.18
2019-05-16T18:33:52.930Z,15.08
2019-05-16T18:36:19.201Z,14.25
2019-05-16T18:38:46.691Z,15.65
2019-05-16T18:41:13.269Z,15.55
2019-05-16T18:43:39.495Z,16.23
2019-05-16T18:46:07.281Z,15.45
2019-05-16T18:48:33.654Z,15.28
2019-05-16T18:51:00.103Z,15.03
2019-05-16T18:53:26.957Z,15.85
2019-05-16T18:55:53.560Z,17.17
2019-05-16T18:58:19.892Z,17.07
2019-05-16T19:00:46.722Z,16.62
2019-05-16T19:03:13.046Z,15.95
2019-05-16T19:05:39.198Z,15.93
2019-05-16T19:08:07.377Z,15.98
2019-05-16T19:10:33.662Z,15.40
2019-05-16T19:13:00.043Z,15.13
2019-05-16T19:15:26.745Z,16.35
2019-05-16T19:17:53.597Z,16.77
2019-05-16T19:20:20.225Z,15.75
2019-05-16T19:22:46.473Z,16.00
2019-05-16T19:25:13.494Z,14.80
2019-05-16T19:27:39.791Z,16.05
2019-05-16T19:30:06.918Z,15.60
2019-05-16T19:32:33.181Z,16.00
2019-05-16T19:34:59.435Z,15.40
2019-05-16T19:37:25.684Z,15.65
2019-05-16T19:39:51.807Z,15.88
2019-05-16T19:42:18.151Z,17.65
2019-05-16T19:44:46.383Z,17.02
2019-05-16T19:47:12.434Z,17.87
2019-05-16T19:49:38.628Z,17.37
2019-05-16T19:52:07.066Z,24.55
2019-05-16T19:54:33.151Z,23.27
2019-05-16T19:56:59.379Z,19.65
2019-05-16T19:59:27.228Z,17.30
2019-05-16T20:01:53.797Z,17.95
2019-05-16T20:04:19.920Z,20.35
2019-05-16T20:06:47.494Z,21.40
2019-05-16T20:09:16.498Z,21.50
2019-05-16T20:11:42.052Z,18.87
2019-05-16T20:14:08.485Z,17.25
2019-05-16T20:16:36.626Z,17.40
2019-05-16T20:19:03.090Z,17.42
2019-05-16T20:21:29.257Z,18.55
2019-05-16T20:23:56.872Z,26.27
2019-05-16T20:26:23.050Z,23.15
2019-05-16T20:28:49.329Z,21.85
2019-05-16T20:31:17.059Z,21.25
2019-05-16T20:33:43.310Z,18.95
2019-05-16T20:36:09.764Z,22.80
2019-05-16T20:38:37.221Z,20.45
2019-05-16T20:41:03.728Z,22.35
2019-05-16T20:43:29.880Z,22.87
2019-05-16T20:46:07.526Z,20.77
2019-05-16T20:48:36.742Z,21.02
2019-05-16T20:51:02.397Z,20.15
2019-05-16T20:53:28.713Z,19.02
2019-05-16T20:55:57.370Z,18.75
2019-05-16T20:58:23.842Z,18.00
2019-05-16T21:00:50.937Z,18.57
2019-05-16T21:03:17.202Z,18.85
2019-05-16T21:05:43.467Z,18.27
2019-05-16T21:08:09.711Z,19.32
2019-05-16T21:10:35.954Z,19.07
2019-05-16T21:13:02.198Z,20.25
2019-05-16T21:15:28.611Z,19.62
2019-05-16T21:17:56.636Z,19.40
2019-05-16T21:20:23.845Z,17.62
2019-05-16T21:22:49.942Z,18.02
2019-05-16T21:25:16.861Z,20.75
2019-05-16T21:27:46.479Z,19.37
2019-05-16T21:30:13.377Z,18.42
2019-05-16T21:32:40.490Z,18.95
2019-05-16T21:35:07.296Z,18.20
2019-05-16T21:37:33.931Z,18.95
2019-05-16T21:40:00.039Z,18.73
2019-05-16T21:42:27.100Z,18.77
2019-05-16T21:44:53.378Z,16.97
2019-05-16T21:47:19.781Z,17.27
2019-05-16T21:49:47.180Z,18.23
2019-05-16T21:52:13.784Z,15.68
2019-05-16T21:54:39.890Z,16.60
2019-05-16T21:57:06.079Z,16.07
2019-05-16T21:59:32.249Z,15.32
2019-05-16T22:01:58.735Z,16.35
2019-05-16T22:04:25.214Z,15.93
2019-05-16T22:06:51.514Z,14.73
2019-05-16T22:09:17.625Z,15.15
2019-05-16T22:11:46.409Z,14.75
2019-05-16T22:14:12.560Z,15.72
2019-05-16T22:16:38.859Z,14.80
2019-05-16T22:19:07.101Z,15.28
2019-05-16T22:21:33.361Z,14.70
2019-05-16T22:23:59.569Z,15.80
2019-05-16T22:26:27.042Z,15.68
2019-05-16T22:28:53.412Z,18.00
2019-05-16T22:31:19.656Z,16.77
2019-05-16T22:33:46.899Z,16.45
2019-05-16T22:36:13.374Z,16.42
2019-05-16T22:38:39.628Z,17.37
2019-05-16T22:41:07.282Z,19.00
2019-05-16T22:43:33.837Z,18.62
2019-05-16T22:46:00.535Z,18.62
2019-05-16T22:48:26.753Z,18.77
2019-05-16T22:50:52.921Z,21.73
2019-05-16T22:53:19.068Z,19.30
2019-05-16T22:55:47.601Z,18.57
2019-05-16T22:58:13.451Z,20.08
2019-05-16T23:00:41.407Z,20.08
2019-05-16T23:03:07.829Z,18.73
2019-05-16T23:05:36.661Z,17.92
2019-05-16T23:08:06.090Z,18.45
2019-05-16T23:10:30.567Z,18.65
2019-05-16T23:12:57.325Z,17.07
2019-05-16T23:15:26.406Z,18.57
2019-05-16T23:17:51.997Z,18.00
2019-05-16T23:20:18.292Z,17.67
2019-05-16T23:22:46.825Z,19.37
2019-05-16T23:25:12.963Z,20.02
2019-05-16T23:27:39.215Z,20.12
2019-05-16T23:30:08.025Z,18.37
2019-05-16T23:32:36.388Z,20.12
2019-05-16T23:35:06.762Z,18.98
2019-05-16T23:37:32.883Z,19.55
2019-05-16T23:39:58.980Z,19.65
2019-05-16T23:42:26.340Z,21.37
2019-05-16T23:44:52.779Z,20.65
2019-05-16T23:47:18.986Z,20.20
2019-05-16T23:49:47.151Z,21.35
2019-05-16T23:52:13.218Z,20.43
2019-05-16T23:54:39.416Z,20.05
2019-05-16T23:57:06.630Z,20.25
2019-05-16T23:59:34.065Z,19.12
